Time;durP1;ratioP1;P1;durP2;ratioP2;P2;SDS_P1;SDS_P2;PMS_P1;PMS_P2;Temp;Humidity;BMP_temperature;BMP_pressure;BME280_temperature;BME280_humidity;BME280_pressure;Samples;Min_cycle;Max_cycle;Signal;HPM_P1;HPM_P2
2022/08/31 00:04:11;;;;;;;7.20;3.38;;;20.80;83.90;;;;;;5051524;28;20072;-70
2022/08/31 00:06:37;;;;;;;5.53;3.72;;;20.80;83.90;;;;;;5057046;28;20115;-70
2022/08/31 00:09:05;;;;;;;9.18;4.18;;;20.80;83.90;;;;;;5046644;28;20032;-70
2022/08/31 00:11:34;;;;;;;8.55;3.85;;;20.80;84.00;;;;;;5059204;28;20363;-70
2022/08/31 00:14:03;;;;;;;8.68;4.13;;;20.80;84.10;;;;;;5060549;28;20397;-70
2022/08/31 00:16:31;;;;;;;10.45;3.97;;;20.80;84.10;;;;;;5059616;28;20028;-70
2022/08/31 00:18:57;;;;;;;6.05;4.22;;;20.80;84.20;;;;;;5052776;28;20024;-70
2022/08/31 00:21:27;;;;;;;8.80;3.75;;;20.80;84.10;;;;;;5060621;28;20029;-71
2022/08/31 00:23:54;;;;;;;5.68;3.88;;;20.80;84.20;;;;;;5042965;28;20033;-70
2022/08/31 00:26:21;;;;;;;6.65;4.00;;;20.80;84.20;;;;;;5059706;28;20048;-70
2022/08/31 00:28:47;;;;;;;7.90;4.63;;;20.80;84.30;;;;;;5057983;28;20021;-70
2022/08/31 00:31:13;;;;;;;11.35;3.70;;;20.80;84.30;;;;;;5057292;28;20382;-70
2022/08/31 00:33:39;;;;;;;8.32;3.97;;;20.80;84.40;;;;;;5056647;28;20055;-69
2022/08/31 00:36:07;;;;;;;5.35;3.17;;;20.80;84.40;;;;;;5059315;28;20085;-70
2022/08/31 00:38:33;;;;;;;14.82;3.90;;;20.80;84.50;;;;;;5062412;28;20469;-70
2022/08/31 00:40:59;;;;;;;7.78;3.90;;;20.80;84.60;;;;;;5061561;28;20029;-70
2022/08/31 00:43:48;;;;;;;6.82;3.97;;;20.80;84.60;;;;;;5061152;28;20041;-69
2022/08/31 00:46:20;;;;;;;8.52;4.45;;;20.70;84.60;;;;;;5055545;28;20017;-69
2022/08/31 00:49:05;;;;;;;6.40;3.45;;;20.80;84.70;;;;;;5060929;28;20040;-70
2022/08/31 00:51:38;;;;;;;15.82;3.67;;;20.80;84.70;;;;;;5063629;28;20032;-69
2022/08/31 00:54:07;;;;;;;8.98;3.90;;;20.70;84.70;;;;;;5060800;28;20021;-70
2022/08/31 00:56:34;;;;;;;7.22;4.18;;;20.70;84.80;;;;;;5061161;28;20095;-70
2022/08/31 00:59:00;;;;;;;9.82;4.15;;;20.70;84.70;;;;;;5063732;28;20448;-70
2022/08/31 01:01:27;;;;;;;7.68;3.78;;;20.70;84.80;;;;;;5064163;28;20020;-70
2022/08/31 01:03:53;;;;;;;10.55;4.07;;;20.70;84.90;;;;;;5041554;28;20437;-70
2022/08/31 01:06:20;;;;;;;8.93;4.50;;;20.70;84.90;;;;;;5060409;28;20051;-70
2022/08/31 01:08:46;;;;;;;7.13;3.60;;;20.70;84.90;;;;;;5063216;28;20028;-71
2022/08/31 01:11:13;;;;;;;12.68;3.97;;;20.70;85.00;;;;;;5064038;28;20109;-70
2022/08/31 01:13:40;;;;;;;13.18;3.88;;;20.70;85.00;;;;;;5062208;28;20028;-70
2022/08/31 01:16:15;;;;;;;10.13;3.97;;;20.60;85.00;;;;;;5042034;28;20029;-70
2022/08/31 01:18:41;;;;;;;13.75;4.20;;;20.70;85.10;;;;;;5059417;28;20490;-70
2022/08/31 01:21:28;;;;;;;6.30;4.03;;;20.70;85.10;;;;;;5042607;28;20025;-70
2022/08/31 01:23:57;;;;;;;9.50;4.20;;;20.70;85.20;;;;;;5063570;28;20495;-70
2022/08/31 01:26:26;;;;;;;11.35;4.45;;;20.60;85.10;;;;;;5063371;28;20078;-70
2022/08/31 01:28:57;;;;;;;9.43;4.47;;;20.70;85.20;;;;;;5060921;28;20025;-70
2022/08/31 01:31:30;;;;;;;20.30;4.68;;;20.70;85.20;;;;;;5042757;28;20021;-70
2022/08/31 01:33:56;;;;;;;12.98;4.38;;;20.70;85.30;;;;;;5048312;28;20025;-70
2022/08/31 01:36:22;;;;;;;17.70;3.55;;;20.70;85.20;;;;;;5059732;28;20025;-70
2022/08/31 01:38:48;;;;;;;14.55;4.30;;;20.70;85.30;;;;;;5062037;28;20096;-70
2022/08/31 01:41:14;;;;;;;8.52;4.55;;;20.60;85.20;;;;;;5063702;28;20017;-70
2022/08/31 01:43:39;;;;;;;9.02;4.43;;;20.60;85.30;;;;;;5057729;28;20506;-70
2022/08/31 01:46:08;;;;;;;6.47;3.90;;;20.60;85.30;;;;;;5063151;28;20033;-70
2022/08/31 01:48:35;;;;;;;9.15;5.15;;;20.60;85.30;;;;;;5055363;28;20681;-70
2022/08/31 01:51:02;;;;;;;6.93;4.20;;;20.60;85.40;;;;;;5052298;28;20033;-70
2022/08/31 01:54:25;;;;;;;7.35;4.03;;;20.60;85.50;;;;;;5069449;28;20021;-70
2022/08/31 01:56:51;;;;;;;13.45;4.13;;;20.60;85.50;;;;;;5072058;28;20074;-70
2022/08/31 01:59:18;;;;;;;11.75;4.40;;;20.60;85.50;;;;;;5054006;28;20029;-71
2022/08/31 02:01:47;;;;;;;5.22;3.58;;;20.60;85.60;;;;;;5060689;28;20425;-70
2022/08/31 02:04:14;;;;;;;6.23;3.80;;;20.60;85.60;;;;;;5056766;28;20543;-70
2022/08/31 02:06:43;;;;;;;8.27;4.07;;;20.60;85.70;;;;;;5058993;28;20277;-70
2022/08/31 02:09:09;;;;;;;10.75;4.53;;;20.60;85.60;;;;;;5062890;28;20025;-70
2022/08/31 02:11:35;;;;;;;8.23;4.95;;;20.60;85.70;;;;;;5062978;28;20513;-70
2022/08/31 02:14:02;;;;;;;7.38;4.75;;;20.60;85.70;;;;;;5059011;28;20030;-71
2022/08/31 02:16:27;;;;;;;10.43;4.57;;;20.60;85.70;;;;;;5059120;28;20036;-70
2022/08/31 02:18:53;;;;;;;12.63;4.05;;;20.60;85.70;;;;;;5058345;28;20029;-70
2022/08/31 02:21:22;;;;;;;7.40;4.18;;;20.60;85.80;;;;;;5059164;28;20489;-70
2022/08/31 02:23:48;;;;;;;10.70;4.53;;;20.60;85.80;;;;;;5048783;28;20055;-71
2022/08/31 02:26:14;;;;;;;9.30;4.32;;;20.60;85.80;;;;;;5054851;28;20385;-70
2022/08/31 02:28:40;;;;;;;11.57;4.75;;;20.60;85.80;;;;;;5062850;28;20048;-70
2022/08/31 02:31:06;;;;;;;9.75;4.63;;;20.60;85.90;;;;;;5058817;28;20025;-70
2022/08/31 02:33:31;;;;;;;6.90;4.35;;;20.60;85.90;;;;;;5058395;28;20040;-70
2022/08/31 02:35:57;;;;;;;8.52;4.63;;;20.60;86.00;;;;;;5058265;28;20024;-70
2022/08/31 02:38:23;;;;;;;6.18;4.53;;;20.60;86.00;;;;;;5058461;28;20035;-71
2022/08/31 02:40:49;;;;;;;6.75;4.00;;;20.60;86.00;;;;;;5059665;28;20028;-70
2022/08/31 02:43:15;;;;;;;17.55;5.20;;;20.60;86.00;;;;;;5062583;28;20032;-70
2022/08/31 02:45:41;;;;;;;8.43;4.15;;;20.60;86.00;;;;;;5061822;28;20425;-70
2022/08/31 02:48:09;;;;;;;9.48;4.07;;;20.60;86.10;;;;;;5059030;28;20152;-70
2022/08/31 02:50:45;;;;;;;9.13;4.15;;;20.50;86.80;;;;;;5041772;28;20386;-71
2022/08/31 02:53:13;;;;;;;6.35;3.78;;;20.60;86.10;;;;;;5050533;28;20197;-70
2022/08/31 02:55:39;;;;;;;8.88;4.65;;;20.60;86.20;;;;;;5058204;28;20264;-70
2022/08/31 02:58:05;;;;;;;9.52;4.82;;;20.60;86.90;;;;;;5061290;28;20017;-70
2022/08/31 03:00:32;;;;;;;6.68;4.55;;;20.50;86.20;;;;;;5062002;28;20110;-70
2022/08/31 03:02:58;;;;;;;10.65;4.32;;;20.50;86.20;;;;;;5053367;28;20464;-70
2022/08/31 03:05:24;;;;;;;19.75;4.43;;;20.50;86.20;;;;;;5043175;28;20107;-70
2022/08/31 03:07:50;;;;;;;7.72;4.45;;;20.50;86.20;;;;;;5058476;28;20026;-70
2022/08/31 03:10:18;;;;;;;9.70;4.72;;;20.50;86.20;;;;;;5040449;28;20029;-70
2022/08/31 03:12:44;;;;;;;7.60;4.10;;;20.50;86.30;;;;;;5058667;28;20025;-70
2022/08/31 03:15:10;;;;;;;10.13;4.38;;;20.50;86.30;;;;;;5060506;28;20033;-70
2022/08/31 03:17:36;;;;;;;8.07;4.97;;;20.50;86.30;;;;;;5062344;28;20027;-70
2022/08/31 03:20:05;;;;;;;10.75;4.80;;;20.50;86.40;;;;;;5036045;28;20032;-70
2022/08/31 03:22:31;;;;;;;11.30;4.35;;;20.50;86.40;;;;;;5061569;28;20032;-70
2022/08/31 03:24:56;;;;;;;13.88;5.15;;;20.50;86.40;;;;;;5059954;28;20568;-71
2022/08/31 03:27:23;;;;;;;9.68;4.85;;;20.50;86.40;;;;;;5040039;28;20025;-70
2022/08/31 03:29:50;;;;;;;8.15;4.55;;;20.50;86.40;;;;;;5058513;28;20028;-70
2022/08/31 03:32:16;;;;;;;7.50;4.50;;;20.50;86.40;;;;;;5049174;28;20505;-71
2022/08/31 03:34:41;;;;;;;8.35;4.88;;;20.60;86.50;;;;;;5055575;28;20076;-70
2022/08/31 03:37:07;;;;;;;8.57;4.75;;;20.50;86.50;;;;;;5041923;28;20021;-70
2022/08/31 03:39:32;;;;;;;8.18;5.07;;;20.50;86.50;;;;;;5061840;28;20028;-70
2022/08/31 03:41:58;;;;;;;12.55;5.03;;;20.50;86.60;;;;;;5042318;28;20032;-71
2022/08/31 03:44:24;;;;;;;11.85;5.50;;;20.50;86.50;;;;;;5058036;28;20024;-70
2022/08/31 03:46:49;;;;;;;11.25;4.45;;;20.50;86.60;;;;;;5057274;28;20021;-71
2022/08/31 03:49:17;;;;;;;7.47;5.13;;;20.50;86.60;;;;;;5056805;28;20052;-70
2022/08/31 03:51:44;;;;;;;11.85;4.95;;;20.50;86.60;;;;;;5043360;28;20389;-70
2022/08/31 03:54:10;;;;;;;10.77;5.18;;;20.50;86.60;;;;;;5058631;28;20111;-70
2022/08/31 03:56:35;;;;;;;7.30;4.68;;;20.50;86.60;;;;;;5057723;28;20021;-70
2022/08/31 03:59:01;;;;;;;14.60;5.15;;;20.50;86.70;;;;;;5058935;28;20466;-70
2022/08/31 04:01:27;;;;;;;6.28;4.10;;;20.50;86.70;;;;;;5060997;28;20477;-71
2022/08/31 04:03:52;;;;;;;8.18;5.15;;;20.50;86.70;;;;;;5060815;28;20032;-71
2022/08/31 04:06:21;;;;;;;9.73;5.15;;;20.50;86.70;;;;;;5063687;28;20123;-70
2022/08/31 04:08:47;;;;;;;11.40;4.82;;;20.50;86.70;;;;;;5057636;28;20076;-71
2022/08/31 04:11:16;;;;;;;9.55;4.82;;;20.50;86.80;;;;;;5037448;28;20033;-70
2022/08/31 04:14:33;;;;;;;11.60;5.57;;;20.50;86.80;;;;;;5059400;28;20025;-70
2022/08/31 04:17:27;;;;;;;9.13;4.53;;;20.50;86.80;;;;;;5056982;28;20572;-70
2022/08/31 04:19:52;;;;;;;9.82;4.97;;;20.50;86.80;;;;;;5040265;28;20029;-71
2022/08/31 04:22:18;;;;;;;9.55;5.50;;;20.50;86.80;;;;;;5059155;28;20362;-71
2022/08/31 04:24:44;;;;;;;10.55;5.15;;;20.50;86.90;;;;;;5065093;28;20020;-70
2022/08/31 04:27:09;;;;;;;11.57;5.50;;;20.50;86.90;;;;;;5062584;28;20041;-71
2022/08/31 04:29:35;;;;;;;9.95;5.30;;;20.50;86.90;;;;;;5043734;28;20056;-70
2022/08/31 04:32:00;;;;;;;11.30;5.70;;;20.50;86.90;;;;;;5044155;28;20076;-71
2022/08/31 04:37:48;;;;;;;11.52;6.18;;;20.50;87.00;;;;;;5079533;22;20056;-65
2022/08/31 04:40:18;;;;;;;10.63;5.13;;;20.50;87.30;;;;;;5055714;28;20433;-63
2022/08/31 04:42:45;;;;;;;12.63;5.07;;;20.50;87.10;;;;;;5073577;28;20062;-64
2022/08/31 04:45:14;;;;;;;10.70;5.50;;;20.50;87.10;;;;;;5054310;28;20036;-63
2022/08/31 04:47:41;;;;;;;11.23;5.55;;;20.50;87.10;;;;;;5074809;28;20113;-63
2022/08/31 04:50:08;;;;;;;8.85;4.63;;;20.50;87.10;;;;;;5074477;28;20043;-63
2022/08/31 04:52:35;;;;;;;12.65;4.97;;;20.50;87.20;;;;;;5074253;28;20112;-64
2022/08/31 04:55:01;;;;;;;9.52;4.80;;;20.50;87.30;;;;;;5075237;28;20028;-63
2022/08/31 04:57:34;;;;;;;8.02;4.28;;;20.50;87.30;;;;;;5075169;28;20445;-64
2022/08/31 05:00:00;;;;;;;8.57;4.35;;;20.50;87.30;;;;;;5074445;28;20025;-63
2022/08/31 05:02:26;;;;;;;9.48;4.40;;;20.50;87.40;;;;;;5056023;28;20036;-63
2022/08/31 05:04:52;;;;;;;10.25;4.55;;;20.50;88.20;;;;;;5073166;28;20013;-64
2022/08/31 05:07:17;;;;;;;7.43;4.90;;;20.50;87.50;;;;;;5071931;28;20378;-61
2022/08/31 05:09:43;;;;;;;10.77;5.03;;;20.50;87.50;;;;;;5073363;28;20020;-61
2022/08/31 05:12:08;;;;;;;9.38;4.80;;;20.50;87.50;;;;;;5073368;28;20032;-62
2022/08/31 05:14:38;;;;;;;15.45;5.07;;;20.50;87.60;;;;;;5073121;28;20048;-61
2022/08/31 05:17:05;;;;;;;18.10;5.30;;;20.50;87.60;;;;;;5054429;28;20443;-63
2022/08/31 05:19:30;;;;;;;9.68;4.93;;;20.50;87.60;;;;;;5055009;28;20039;-63
2022/08/31 05:21:56;;;;;;;10.60;4.90;;;20.50;87.60;;;;;;5053825;28;20021;-63
2022/08/31 05:24:22;;;;;;;8.65;5.03;;;20.50;87.70;;;;;;5071370;28;20480;-63
2022/08/31 05:26:52;;;;;;;7.35;5.07;;;20.50;87.70;;;;;;5071818;28;20029;-66
2022/08/31 05:29:20;;;;;;;8.73;4.43;;;20.50;87.70;;;;;;5072667;28;20036;-64
2022/08/31 05:31:46;;;;;;;11.10;5.25;;;20.50;87.80;;;;;;5054313;28;20063;-63
2022/08/31 05:34:13;;;;;;;7.60;4.65;;;20.40;87.70;;;;;;5072067;28;20025;-63
2022/08/31 05:36:41;;;;;;;11.57;5.22;;;20.50;87.80;;;;;;5052826;28;20064;-63
2022/08/31 05:39:10;;;;;;;11.00;5.28;;;20.40;87.80;;;;;;5053995;28;20016;-64
2022/08/31 05:41:37;;;;;;;7.72;4.82;;;20.50;87.90;;;;;;5054132;28;20103;-64
2022/08/31 05:47:16;;;;;;;12.23;5.05;;;20.50;88.00;;;;;;5012037;28;20041;-63
2022/08/31 05:49:42;;;;;;;9.95;4.70;;;20.40;87.90;;;;;;4983305;28;20026;-63
2022/08/31 05:52:08;;;;;;;7.68;5.00;;;20.50;88.10;;;;;;5005227;28;20073;-63
2022/08/31 05:54:35;;;;;;;12.40;5.18;;;20.40;88.10;;;;;;5009648;28;20029;-63
2022/08/31 05:57:01;;;;;;;8.20;4.85;;;20.40;88.10;;;;;;5010317;28;20438;-63
2022/08/31 05:59:33;;;;;;;8.43;4.65;;;20.40;88.10;;;;;;4996514;28;20390;-63
2022/08/31 06:02:00;;;;;;;11.43;5.07;;;20.40;88.10;;;;;;5008493;28;20088;-64
2022/08/31 06:04:26;;;;;;;9.02;4.53;;;20.40;88.90;;;;;;4991775;28;20027;-63
2022/08/31 06:06:52;;;;;;;8.10;4.45;;;20.40;88.20;;;;;;5001286;28;20067;-63
2022/08/31 06:09:19;;;;;;;11.68;4.50;;;20.40;88.20;;;;;;4998865;28;20034;-64
2022/08/31 06:11:45;;;;;;;13.40;5.22;;;20.40;88.30;;;;;;5009059;28;20038;-63
2022/08/31 06:14:11;;;;;;;14.75;5.40;;;20.40;88.30;;;;;;5009188;28;20037;-63
2022/08/31 06:16:38;;;;;;;10.20;5.88;;;20.40;88.30;;;;;;5017322;28;20268;-63
2022/08/31 06:19:06;;;;;;;7.30;4.55;;;20.40;88.40;;;;;;5071447;28;20500;-63
2022/08/31 06:21:35;;;;;;;10.85;5.38;;;20.40;88.40;;;;;;5052124;28;20051;-64
2022/08/31 06:24:03;;;;;;;10.40;5.25;;;20.40;88.40;;;;;;5071441;28;20036;-65
2022/08/31 06:26:32;;;;;;;8.70;5.47;;;20.40;88.50;;;;;;5071011;28;20024;-63
2022/08/31 06:29:00;;;;;;;11.82;4.75;;;20.40;88.50;;;;;;5071553;28;20062;-64
2022/08/31 06:31:36;;;;;;;6.55;4.95;;;20.40;88.50;;;;;;5071011;28;20362;-63
2022/08/31 06:34:06;;;;;;;9.77;5.10;;;20.40;88.60;;;;;;5053426;28;20508;-64
2022/08/31 06:36:33;;;;;;;12.88;4.80;;;20.40;88.60;;;;;;5068140;28;20078;-64
2022/08/31 06:39:11;;;;;;;7.43;5.03;;;20.40;89.30;;;;;;5047258;28;20045;-63
2022/08/31 06:41:38;;;;;;;11.18;4.82;;;20.40;88.60;;;;;;5053201;28;20052;-63
2022/08/31 06:44:06;;;;;;;9.90;5.07;;;20.40;88.70;;;;;;5053062;28;20036;-63
2022/08/31 06:46:34;;;;;;;8.85;5.20;;;20.40;88.70;;;;;;5052998;28;20078;-63
2022/08/31 06:49:00;;;;;;;8.23;5.63;;;20.40;88.70;;;;;;5052859;28;20539;-64
2022/08/31 06:51:26;;;;;;;15.55;5.32;;;20.40;88.80;;;;;;5071207;28;20028;-63
2022/08/31 06:53:52;;;;;;;8.40;4.70;;;20.40;88.70;;;;;;5063812;28;20032;-64
2022/08/31 06:56:24;;;;;;;9.25;5.55;;;20.40;88.70;;;;;;5071033;28;20074;-64
2022/08/31 06:58:51;;;;;;;14.00;5.53;;;20.40;88.80;;;;;;5071202;28;20016;-64
2022/08/31 07:01:19;;;;;;;9.02;5.35;;;20.40;88.80;;;;;;5053536;28;20017;-63
2022/08/31 07:07:10;;;;;;;11.68;5.93;;;20.40;88.80;;;;;;5071421;28;20584;-63
2022/08/31 07:09:43;;;;;;;11.57;5.93;;;20.40;88.80;;;;;;5072400;28;20039;-63
2022/08/31 07:12:11;;;;;;;12.85;6.47;;;20.40;88.80;;;;;;5071693;28;20032;-64
2022/08/31 07:24:50;;;;;;;10.68;5.53;;;20.40;88.80;;;;;;5071491;28;20110;-63
2022/08/31 07:27:17;;;;;;;9.85;6.18;;;20.40;88.80;;;;;;5070451;28;20100;-63
2022/08/31 07:29:43;;;;;;;11.13;5.40;;;20.50;88.90;;;;;;5061151;28;20131;-63
2022/08/31 07:32:11;;;;;;;12.35;6.10;;;20.50;88.90;;;;;;5052210;28;20029;-63
2022/08/31 07:34:37;;;;;;;12.60;6.32;;;20.50;88.90;;;;;;5042698;28;20051;-63
2022/08/31 07:42:39;;;;;;;12.20;6.15;;;20.50;88.90;;;;;;5071080;28;20032;-63
2022/08/31 07:45:10;;;;;;;8.57;5.68;;;20.50;88.90;;;;;;5069805;28;20025;-64
2022/08/31 07:47:51;;;;;;;12.10;6.15;;;20.50;88.90;;;;;;5070066;28;20094;-63
2022/08/31 07:50:17;;;;;;;8.48;5.78;;;20.50;88.90;;;;;;5052640;28;20052;-63
2022/08/31 07:52:52;;;;;;;14.27;5.70;;;20.50;88.90;;;;;;5066468;28;20492;-63
2022/08/31 07:55:20;;;;;;;12.40;6.07;;;20.50;89.60;;;;;;5070018;28;20042;-63
2022/08/31 07:57:46;;;;;;;12.70;5.60;;;20.50;88.90;;;;;;5070390;28;20031;-64
2022/08/31 08:00:24;;;;;;;11.18;6.50;;;20.60;89.00;;;;;;5070505;28;20024;-64
2022/08/31 08:02:52;;;;;;;9.70;6.60;;;20.60;89.00;;;;;;5069983;28;20116;-65
2022/08/31 08:05:24;;;;;;;16.23;7.55;;;20.50;88.90;;;;;;5069998;28;20035;-64
2022/08/31 08:07:51;;;;;;;14.48;6.07;;;20.60;88.90;;;;;;5069254;28;20012;-65
2022/08/31 08:10:20;;;;;;;13.60;6.32;;;20.60;88.90;;;;;;5069194;28;20020;-64
2022/08/31 08:12:57;;;;;;;8.88;6.03;;;20.60;88.90;;;;;;5069867;28;20032;-65
2022/08/31 08:15:25;;;;;;;13.57;6.03;;;20.60;88.90;;;;;;5051817;28;20485;-63
2022/08/31 08:17:51;;;;;;;9.57;5.93;;;20.60;88.90;;;;;;5070281;28;20017;-64
2022/08/31 08:20:18;;;;;;;9.88;6.38;;;20.60;89.70;;;;;;5071147;28;20024;-63
2022/08/31 08:22:44;;;;;;;13.13;5.85;;;20.60;88.90;;;;;;5067415;28;20040;-64
2022/08/31 08:25:14;;;;;;;14.90;6.07;;;20.60;88.90;;;;;;5050880;28;20485;-62
2022/08/31 08:27:40;;;;;;;12.45;6.43;;;20.60;88.90;;;;;;5052527;28;20029;-63
2022/08/31 08:30:07;;;;;;;10.20;5.80;;;20.60;88.90;;;;;;5070133;28;20050;-63
2022/08/31 08:32:34;;;;;;;11.40;6.40;;;20.60;88.90;;;;;;5069185;28;20107;-64
2022/08/31 08:34:59;;;;;;;11.95;6.13;;;20.60;89.00;;;;;;5068704;28;20021;-64
2022/08/31 08:37:26;;;;;;;13.52;6.82;;;20.60;89.10;;;;;;5067895;28;20516;-64
2022/08/31 08:39:53;;;;;;;14.38;7.28;;;20.60;89.20;;;;;;5068494;28;20029;-64
2022/08/31 08:42:20;;;;;;;9.43;5.82;;;20.60;89.40;;;;;;5069128;28;20496;-64
2022/08/31 08:44:46;;;;;;;11.82;6.38;;;20.60;89.40;;;;;;5069019;28;20491;-64
2022/08/31 08:47:17;;;;;;;12.30;6.40;;;20.60;89.60;;;;;;5068281;28;20052;-64
2022/08/31 08:49:49;;;;;;;14.00;6.05;;;20.60;89.90;;;;;;5069265;28;20489;-64
2022/08/31 08:52:41;;;;;;;13.20;5.75;;;20.60;89.80;;;;;;5069805;28;20499;-64
2022/08/31 08:55:24;;;;;;;10.10;5.70;;;20.60;89.90;;;;;;5060707;28;20032;-64
2022/08/31 08:57:50;;;;;;;11.02;6.55;;;20.60;90.00;;;;;;5070296;28;20489;-65
2022/08/31 09:00:18;;;;;;;11.13;5.90;;;20.60;90.00;;;;;;5072949;28;20032;-64
2022/08/31 09:03:02;;;;;;;13.52;5.97;;;20.60;90.10;;;;;;5073054;28;20032;-64
2022/08/31 09:05:50;;;;;;;9.32;5.63;;;20.60;90.10;;;;;;5054091;28;20031;-64
2022/08/31 09:08:47;;;;;;;14.80;6.22;;;20.50;90.10;;;;;;5064975;28;20024;-63
2022/08/31 09:11:34;;;;;;;12.07;5.90;;;20.60;90.10;;;;;;5066235;28;20017;-63
2022/08/31 09:14:23;;;;;;;7.40;5.53;;;20.60;90.10;;;;;;5073183;28;20021;-63
2022/08/31 09:17:06;;;;;;;9.18;5.53;;;20.50;90.00;;;;;;5071565;28;20020;-64
2022/08/31 09:19:57;;;;;;;10.25;5.80;;;20.50;90.00;;;;;;5072749;28;20047;-64
2022/08/31 09:22:17;;;;;;;8.48;5.70;;;20.50;90.00;;;;;;5065981;28;20398;-63
2022/08/31 09:24:43;;;;;;;10.82;5.20;;;20.50;90.00;;;;;;5071092;28;20032;-64
2022/08/31 09:27:19;;;;;;;7.78;5.20;;;20.50;90.10;;;;;;5071650;28;20048;-63
2022/08/31 09:30:00;;;;;;;8.38;5.57;;;20.50;90.10;;;;;;5072239;28;20032;-64
2022/08/31 09:32:33;;;;;;;11.43;6.50;;;20.50;90.20;;;;;;5071901;28;20012;-63
2022/08/31 09:35:28;;;;;;;9.35;5.90;;;20.50;90.30;;;;;;5053838;28;20032;-64
2022/08/31 09:38:08;;;;;;;10.30;4.97;;;20.50;90.50;;;;;;5071156;28;20120;-64
2022/08/31 09:40:51;;;;;;;11.85;5.10;;;20.50;90.50;;;;;;5072215;28;20031;-64
2022/08/31 09:43:25;;;;;;;7.53;5.28;;;20.50;90.60;;;;;;5057142;28;20054;-63
2022/08/31 09:46:01;;;;;;;8.45;5.18;;;20.50;90.60;;;;;;5070464;28;20020;-64
2022/08/31 09:48:57;;;;;;;9.70;5.75;;;20.50;90.60;;;;;;5072159;28;20023;-63
2022/08/31 09:51:27;;;;;;;10.82;5.22;;;20.40;90.70;;;;;;5066361;28;20467;-63
2022/08/31 09:57:03;;;;;;;8.10;5.45;;;20.50;90.40;;;;;;5070892;28;20132;-63
2022/08/31 09:59:45;;;;;;;9.68;5.55;;;20.50;90.20;;;;;;5072311;28;20024;-63
2022/08/31 10:02:21;;;;;;;8.18;5.15;;;20.50;90.10;;;;;;5064052;28;20485;-63
2022/08/31 10:04:57;;;;;;;6.97;4.80;;;20.50;90.00;;;;;;5071490;28;20081;-63
2022/08/31 10:07:37;;;;;;;5.90;4.18;;;20.50;90.00;;;;;;5071927;28;20021;-63
2022/08/31 10:10:09;;;;;;;7.30;5.07;;;20.50;90.00;;;;;;5069848;28;20104;-63
2022/08/31 10:12:44;;;;;;;11.02;5.28;;;20.50;90.00;;;;;;5071742;28;20021;-63
2022/08/31 10:15:22;;;;;;;9.45;4.97;;;20.50;89.90;;;;;;5062856;28;20107;-63
2022/08/31 10:18:02;;;;;;;10.88;5.75;;;20.50;89.90;;;;;;5071449;28;20021;-63
2022/08/31 10:20:34;;;;;;;8.18;5.15;;;20.50;89.80;;;;;;5071492;28;20063;-63
2022/08/31 10:23:17;;;;;;;10.65;6.47;;;20.50;89.80;;;;;;5071142;28;20036;-63
2022/08/31 10:25:51;;;;;;;8.20;5.47;;;20.50;89.80;;;;;;5066147;28;20386;-63
2022/08/31 10:28:47;;;;;;;9.68;6.43;;;20.50;89.80;;;;;;5063900;28;20051;-63
2022/08/31 10:31:37;;;;;;;11.90;5.68;;;20.50;89.80;;;;;;5062808;28;20016;-63
2022/08/31 10:37:07;;;;;;;9.88;6.55;;;20.50;89.80;;;;;;5070247;28;20386;-63
2022/08/31 10:39:43;;;;;;;9.13;6.38;;;20.50;89.80;;;;;;5070083;28;20470;-63
2022/08/31 10:42:20;;;;;;;10.10;6.45;;;20.50;89.80;;;;;;5070996;28;20032;-63
2022/08/31 10:44:57;;;;;;;13.10;7.00;;;20.50;89.80;;;;;;5070986;28;20551;-63
2022/08/31 10:47:27;;;;;;;8.98;6.25;;;20.50;89.80;;;;;;5063356;28;20027;-63
2022/08/31 10:49:55;;;;;;;11.00;5.80;;;20.50;89.90;;;;;;5070712;28;20482;-64
2022/08/31 10:52:31;;;;;;;17.85;6.80;;;20.50;89.90;;;;;;5070754;28;20441;-63
2022/08/31 10:55:27;;;;;;;12.30;7.35;;;20.50;90.30;;;;;;5068328;28;20033;-63
2022/08/31 10:58:20;;;;;;;14.13;6.43;;;20.50;90.30;;;;;;5070508;28;20044;-63
2022/08/31 11:00:55;;;;;;;13.77;6.97;;;20.50;90.00;;;;;;5070339;28;20434;-63
2022/08/31 11:03:38;;;;;;;10.60;6.43;;;20.50;90.00;;;;;;5062530;28;20028;-63
2022/08/31 11:06:24;;;;;;;9.32;6.63;;;20.50;90.00;;;;;;5069493;28;20027;-63
2022/08/31 11:09:20;;;;;;;13.23;6.85;;;20.60;90.10;;;;;;5069138;28;20028;-63
2022/08/31 11:11:56;;;;;;;11.23;6.53;;;20.60;90.20;;;;;;5047079;28;20569;-63
2022/08/31 11:14:52;;;;;;;18.65;7.40;;;20.60;90.20;;;;;;5050626;28;20039;-64
2022/08/31 11:17:51;;;;;;;13.25;7.65;;;20.50;90.10;;;;;;5041822;28;20029;-62
2022/08/31 11:20:18;;;;;;;13.07;7.40;;;20.60;90.20;;;;;;5068875;28;20024;-63
2022/08/31 11:22:55;;;;;;;10.15;6.22;;;20.60;90.30;;;;;;5068787;28;20040;-63
2022/08/31 11:25:46;;;;;;;10.45;7.45;;;20.60;90.30;;;;;;5064075;28;20178;-62
2022/08/31 11:28:32;;;;;;;11.27;7.38;;;20.60;90.30;;;;;;5048973;28;20052;-63
2022/08/31 11:31:22;;;;;;;16.70;7.65;;;20.60;90.30;;;;;;5066148;28;20532;-63
2022/08/31 11:33:59;;;;;;;15.13;7.55;;;20.60;90.30;;;;;;5067708;28;20086;-63
2022/08/31 11:36:41;;;;;;;15.35;7.82;;;20.60;90.30;;;;;;5067315;28;20036;-64
2022/08/31 11:39:07;;;;;;;11.55;7.57;;;20.60;90.30;;;;;;5064523;28;20036;-63
2022/08/31 11:41:45;;;;;;;11.65;7.85;;;20.70;90.30;;;;;;5068085;28;20024;-63
2022/08/31 11:44:32;;;;;;;12.95;7.43;;;20.70;90.30;;;;;;5050114;28;20075;-63
2022/08/31 11:47:29;;;;;;;14.18;7.25;;;20.70;90.40;;;;;;5050739;28;20124;-63
2022/08/31 11:49:58;;;;;;;17.20;7.13;;;20.70;90.30;;;;;;5068316;28;20032;-63
2022/08/31 11:52:27;;;;;;;16.65;8.70;;;20.70;90.30;;;;;;5066728;28;20028;-63
2022/08/31 11:55:01;;;;;;;14.30;8.45;;;20.70;90.30;;;;;;5064454;28;20151;-63
2022/08/31 11:57:31;;;;;;;18.10;8.43;;;20.70;90.30;;;;;;5067061;28;20416;-64
2022/08/31 11:59:58;;;;;;;9.82;6.55;;;20.80;90.30;;;;;;5066553;28;20017;-63
2022/08/31 12:02:24;;;;;;;13.50;8.00;;;20.70;90.30;;;;;;5051729;28;20543;-63
2022/08/31 12:05:03;;;;;;;10.20;7.47;;;20.70;90.40;;;;;;5070327;28;20032;-63
2022/08/31 12:07:34;;;;;;;10.85;7.28;;;20.80;90.40;;;;;;5049327;28;20477;-63
2022/08/31 12:10:06;;;;;;;11.13;7.38;;;20.80;90.40;;;;;;5047068;28;20028;-63
2022/08/31 12:12:34;;;;;;;10.75;6.45;;;20.80;90.50;;;;;;5060667;28;20043;-63
2022/08/31 12:15:09;;;;;;;10.35;6.10;;;20.80;90.50;;;;;;5069098;28;20035;-63
2022/08/31 12:17:50;;;;;;;9.82;4.68;;;20.80;90.50;;;;;;5062579;28;20083;-63
2022/08/31 12:20:19;;;;;;;8.32;5.18;;;20.80;90.50;;;;;;5069220;28;20462;-64
2022/08/31 12:26:22;;;;;;;7.22;5.30;;;20.90;90.60;;;;;;5061236;28;20448;-63
2022/08/31 12:28:57;;;;;;;8.80;4.90;;;20.90;90.60;;;;;;5069339;28;20424;-63
2022/08/31 12:31:23;;;;;;;8.93;5.15;;;20.90;90.60;;;;;;5069520;28;20024;-63
2022/08/31 12:34:06;;;;;;;7.40;5.38;;;20.90;90.60;;;;;;5071265;28;20485;-63
2022/08/31 12:36:35;;;;;;;11.57;5.70;;;20.90;90.60;;;;;;5063952;28;20060;-63
2022/08/31 12:39:18;;;;;;;11.25;5.78;;;20.90;90.60;;;;;;5073119;28;20025;-63
2022/08/31 12:41:50;;;;;;;11.43;5.85;;;20.90;90.60;;;;;;5066424;28;20032;-63
2022/08/31 12:44:21;;;;;;;9.55;5.22;;;20.90;90.60;;;;;;5072798;28;20036;-63
2022/08/31 12:47:15;;;;;;;7.93;5.03;;;20.90;90.60;;;;;;5071958;28;20112;-62
2022/08/31 12:49:59;;;;;;;11.20;6.10;;;21.00;90.60;;;;;;5066126;28;20020;-63
2022/08/31 12:52:43;;;;;;;10.30;5.90;;;21.00;90.60;;;;;;5072995;28;20024;-63
2022/08/31 12:55:11;;;;;;;10.38;5.70;;;21.00;90.60;;;;;;5070766;28;20021;-63
2022/08/31 12:58:07;;;;;;;13.93;5.72;;;21.00;90.60;;;;;;5072436;28;20032;-63
2022/08/31 13:00:38;;;;;;;10.98;6.18;;;21.00;90.70;;;;;;5064359;28;20021;-63
2022/08/31 13:03:16;;;;;;;8.13;5.05;;;21.00;90.70;;;;;;5072657;28;20358;-63
2022/08/31 13:05:45;;;;;;;9.57;5.18;;;21.00;90.70;;;;;;5064428;28;20052;-63
2022/08/31 13:08:22;;;;;;;8.70;4.67;;;21.00;90.60;;;;;;5072772;28;20501;-63
2022/08/31 13:10:47;;;;;;;6.30;4.15;;;21.10;90.70;;;;;;5071313;28;20365;-63
2022/08/31 13:13:26;;;;;;;10.40;4.10;;;21.10;90.70;;;;;;5072448;28;20104;-63
2022/08/31 13:15:59;;;;;;;9.90;4.25;;;21.10;90.70;;;;;;5071398;28;20021;-63
2022/08/31 13:18:28;;;;;;;9.95;4.75;;;21.10;90.70;;;;;;5072415;28;20489;-63
2022/08/31 13:20:55;;;;;;;8.10;5.35;;;21.10;90.70;;;;;;5072258;28;20463;-63
2022/08/31 13:23:50;;;;;;;12.45;6.60;;;21.10;90.70;;;;;;5072224;28;20040;-63
2022/08/31 13:26:23;;;;;;;10.25;5.03;;;21.10;90.70;;;;;;4968717;28;20077;-63
2022/08/31 13:28:58;;;;;;;15.20;5.20;;;21.10;90.70;;;;;;4970798;28;20348;-63
2022/08/31 13:31:27;;;;;;;8.35;4.65;;;21.10;90.70;;;;;;4970879;28;20381;-63
2022/08/31 13:34:01;;;;;;;8.45;4.90;;;21.10;90.70;;;;;;4971128;28;20031;-63
2022/08/31 13:36:36;;;;;;;9.88;5.38;;;21.10;90.70;;;;;;4969873;28;20046;-63
2022/08/31 13:39:18;;;;;;;9.68;5.07;;;21.10;90.80;;;;;;4970785;28;20046;-63
2022/08/31 13:41:55;;;;;;;8.68;4.93;;;21.10;90.70;;;;;;4964485;28;20027;-63